Time;durP1;ratioP1;P1;durP2;ratioP2;P2;SDS_P1;SDS_P2;PMS_P1;PMS_P2;Temp;Humidity;BMP_temperature;BMP_pressure;BME280_temperature;BME280_humidity;BME280_pressure;Samples;Min_cycle;Max_cycle;Signal;HPM_P1;HPM_P2
2021/12/23 00:00:26;;;;;;;12.40;4.10;;;-1.20;59.30;;;;;;4877913;29;20028;-78
2021/12/23 00:02:52;;;;;;;11.43;5.10;;;-1.20;59.40;;;;;;4880148;29;20287;-78
2021/12/23 00:05:18;;;;;;;16.00;6.13;;;-1.10;59.70;;;;;;4872935;29;20036;-78
2021/12/23 00:07:43;;;;;;;17.07;7.57;;;-1.10;59.70;;;;;;4903683;29;20094;-78
2021/12/23 00:10:09;;;;;;;19.73;8.47;;;-1.00;59.70;;;;;;4899804;29;20029;-78
2021/12/23 00:12:38;;;;;;;16.03;7.00;;;-1.00;59.30;;;;;;4885539;29;20036;-78
2021/12/23 00:15:09;;;;;;;15.50;8.17;;;-1.00;59.30;;;;;;4910176;29;20039;-78
2021/12/23 00:25:34;;;;;;;10.47;4.50;;;-1.00;59.50;;;;;;4897894;29;20855;-79
2021/12/23 00:28:00;;;;;;;7.27;4.20;;;-1.00;59.10;;;;;;4894436;29;20289;-78
2021/12/23 00:30:26;;;;;;;8.53;3.27;;;-1.00;59.10;;;;;;4902911;29;20033;-78
2021/12/23 00:32:54;;;;;;;18.43;5.60;;;-1.10;59.30;;;;;;4894928;29;20037;-76
2021/12/23 00:35:21;;;;;;;12.33;5.33;;;-1.20;59.40;;;;;;4886620;29;20281;-77
2021/12/23 00:37:48;;;;;;;10.37;4.20;;;-1.30;59.70;;;;;;4909910;29;20285;-77
2021/12/23 00:40:16;;;;;;;9.17;3.83;;;-1.20;60.00;;;;;;4904110;29;20371;-77
2021/12/23 00:42:42;;;;;;;10.27;4.60;;;-1.10;60.10;;;;;;4897293;29;20740;-77
2021/12/23 00:45:08;;;;;;;10.53;4.57;;;-1.00;59.90;;;;;;4884921;29;20284;-76
2021/12/23 00:47:34;;;;;;;14.37;5.60;;;-1.00;59.80;;;;;;4887025;29;20277;-77
2021/12/23 00:50:00;;;;;;;9.20;5.00;;;-1.00;59.80;;;;;;4877238;29;20402;-77
2021/12/23 00:52:35;;;;;;;17.00;6.33;;;-1.00;59.50;;;;;;4893386;29;20037;-77
2021/12/23 00:55:04;;;;;;;13.73;5.60;;;-1.00;59.60;;;;;;4897162;29;20032;-77
2021/12/23 00:57:30;;;;;;;12.23;4.97;;;-1.10;59.40;;;;;;4906939;29;20744;-77
2021/12/23 00:59:58;;;;;;;12.07;5.50;;;-1.10;59.60;;;;;;4892708;29;20288;-77
2021/12/23 01:02:29;;;;;;;12.10;5.30;;;-1.10;59.60;;;;;;4904277;29;20339;-76
2021/12/23 01:04:56;;;;;;;13.47;5.47;;;-1.00;59.60;;;;;;4881769;29;20348;-76
2021/12/23 01:07:21;;;;;;;13.83;6.00;;;-1.00;59.50;;;;;;4880122;29;20287;-77
2021/12/23 01:09:47;;;;;;;9.17;4.30;;;-1.00;59.50;;;;;;4885658;29;20755;-77
2021/12/23 01:12:17;;;;;;;10.03;4.83;;;-1.00;59.60;;;;;;4896328;29;20033;-77
2021/12/23 01:14:55;;;;;;;8.60;4.13;;;-1.00;59.60;;;;;;4911629;29;20020;-76
2021/12/23 01:19:53;;;;;;;11.37;4.33;;;-1.00;59.80;;;;;;4904636;29;20305;-77
2021/12/23 01:22:20;;;;;;;13.90;3.90;;;-1.00;59.60;;;;;;4904912;29;20375;-76
2021/12/23 01:24:47;;;;;;;10.13;3.53;;;-1.00;59.70;;;;;;4904017;29;20292;-76
2021/12/23 01:27:13;;;;;;;7.47;3.10;;;-1.10;59.60;;;;;;4903134;29;20277;-76
2021/12/23 01:29:38;;;;;;;6.77;3.13;;;-1.00;59.70;;;;;;4899424;29;20768;-76
2021/12/23 01:32:06;;;;;;;10.27;3.50;;;-1.00;59.50;;;;;;4894708;29;20088;-76
2021/12/23 01:34:36;;;;;;;8.37;3.00;;;-1.00;59.40;;;;;;4886751;29;20028;-76
2021/12/23 01:37:03;;;;;;;11.20;3.57;;;-1.10;60.00;;;;;;4891665;29;20385;-76
2021/12/23 01:39:30;;;;;;;7.07;3.43;;;-1.10;59.30;;;;;;4905296;29;20289;-76
2021/12/23 01:41:56;;;;;;;9.47;3.77;;;-1.10;59.40;;;;;;4901834;29;20284;-76
2021/12/23 01:44:22;;;;;;;8.30;3.27;;;-1.10;59.40;;;;;;4890441;29;20664;-76
2021/12/23 01:46:48;;;;;;;8.80;3.60;;;-1.20;59.50;;;;;;4900442;29;20295;-77
2021/12/23 01:49:14;;;;;;;10.67;4.03;;;-1.20;59.50;;;;;;4891870;29;20039;-77
2021/12/23 01:51:40;;;;;;;10.67;3.47;;;-1.10;59.60;;;;;;4900767;29;20080;-77
2021/12/23 01:54:05;;;;;;;8.97;4.20;;;-1.20;59.40;;;;;;4887911;29;20081;-77
2021/12/23 01:56:31;;;;;;;10.70;4.33;;;-1.20;59.30;;;;;;4889563;29;20151;-77
2021/12/23 01:58:57;;;;;;;7.63;3.90;;;-1.20;59.50;;;;;;4891018;29;20100;-77
2021/12/23 02:01:24;;;;;;;11.17;3.33;;;-1.20;59.50;;;;;;4903291;29;20036;-76
2021/12/23 02:03:49;;;;;;;9.20;4.20;;;-1.30;59.40;;;;;;4872332;29;20092;-77
2021/12/23 02:06:15;;;;;;;12.10;4.73;;;-1.30;59.60;;;;;;4893296;29;20293;-77
2021/12/23 02:08:43;;;;;;;9.30;3.70;;;-1.20;59.60;;;;;;4892510;29;20056;-77
2021/12/23 02:11:10;;;;;;;5.60;2.63;;;-1.20;59.60;;;;;;4900523;29;20055;-77
2021/12/23 02:13:37;;;;;;;6.83;2.87;;;-1.20;59.60;;;;;;4900266;29;20367;-77
2021/12/23 02:16:05;;;;;;;5.97;2.57;;;-1.20;59.50;;;;;;4891904;29;20277;-77
2021/12/23 02:18:30;;;;;;;5.57;2.53;;;-1.20;59.50;;;;;;4895998;29;21104;-78
2021/12/23 02:20:57;;;;;;;8.17;3.07;;;-1.20;59.30;;;;;;4901644;29;20368;-77
2021/12/23 02:23:24;;;;;;;8.93;3.23;;;-1.20;59.30;;;;;;4894076;29;20449;-78
2021/12/23 02:25:49;;;;;;;9.03;3.50;;;-1.20;59.30;;;;;;4897767;29;20287;-77
2021/12/23 02:28:20;;;;;;;7.13;2.83;;;-1.20;59.50;;;;;;4894186;29;20731;-77
2021/12/23 02:30:51;;;;;;;10.90;2.70;;;-1.20;59.60;;;;;;4888666;29;20032;-77
2021/12/23 02:33:21;;;;;;;5.73;2.30;;;-1.20;59.70;;;;;;4904683;29;20782;-77
2021/12/23 02:35:47;;;;;;;5.00;2.10;;;-1.10;59.60;;;;;;4892557;29;20272;-77
2021/12/23 02:38:13;;;;;;;6.13;2.70;;;-1.20;59.60;;;;;;4886551;29;20284;-77
2021/12/23 02:40:42;;;;;;;6.93;3.00;;;-1.10;60.30;;;;;;4896075;29;20804;-77
2021/12/23 02:43:22;;;;;;;165.90;39.80;;;-1.10;59.70;;;;;;4882114;29;20032;-76
2021/12/23 02:45:49;;;;;;;14.80;5.37;;;-1.20;59.70;;;;;;4878065;29;20301;-76
2021/12/23 02:48:21;;;;;;;13.40;4.67;;;-1.30;59.90;;;;;;4883381;29;20350;-77
2021/12/23 02:50:50;;;;;;;15.38;5.53;;;-1.20;59.80;;;;;;4876803;29;20797;-76
2021/12/23 02:53:16;;;;;;;11.13;4.47;;;-1.20;59.70;;;;;;4891419;29;20036;-76
2021/12/23 02:55:43;;;;;;;9.97;4.07;;;-1.30;59.60;;;;;;4904357;29;20285;-76
2021/12/23 02:58:09;;;;;;;5.33;3.03;;;-1.30;59.60;;;;;;4898774;29;20033;-76
2021/12/23 03:00:37;;;;;;;7.17;3.13;;;-1.20;59.70;;;;;;4887209;29;20280;-76
2021/12/23 03:03:03;;;;;;;4.90;2.53;;;-1.20;59.80;;;;;;4876528;29;20435;-76
2021/12/23 03:05:29;;;;;;;5.37;2.50;;;-1.10;59.70;;;;;;4899388;29;20289;-76
2021/12/23 03:07:54;;;;;;;4.10;2.30;;;-1.20;59.50;;;;;;4905721;29;20775;-77
2021/12/23 03:10:23;;;;;;;6.53;2.90;;;-1.20;59.60;;;;;;4896144;29;20400;-77
2021/12/23 03:12:50;;;;;;;6.53;3.20;;;-1.20;59.50;;;;;;4906620;29;20025;-76
2021/12/23 03:15:16;;;;;;;6.70;3.13;;;-1.20;59.60;;;;;;4882812;29;20269;-76
2021/12/23 03:17:42;;;;;;;7.40;3.03;;;-1.20;59.60;;;;;;4875371;29;20753;-76
2021/12/23 03:20:09;;;;;;;5.80;3.37;;;-1.30;59.60;;;;;;4890321;29;20276;-76
2021/12/23 03:22:34;;;;;;;11.83;4.43;;;-1.30;59.70;;;;;;4877098;29;20040;-76
2021/12/23 03:25:00;;;;;;;9.47;4.23;;;-1.30;60.40;;;;;;4904219;29;20283;-76
2021/12/23 03:27:26;;;;;;;7.20;3.73;;;-1.30;60.20;;;;;;4883175;29;20069;-76
2021/12/23 03:29:52;;;;;;;10.97;3.93;;;-1.30;60.70;;;;;;4886533;29;20021;-76
2021/12/23 03:32:18;;;;;;;11.50;2.83;;;-1.20;61.50;;;;;;4890407;29;20123;-76
2021/12/23 03:34:43;;;;;;;3.60;2.17;;;-1.10;60.90;;;;;;4881468;29;20032;-76
2021/12/23 03:37:09;;;;;;;8.83;3.13;;;-1.20;60.50;;;;;;4878991;29;20033;-77
2021/12/23 03:39:35;;;;;;;6.93;2.80;;;-1.20;60.40;;;;;;4898214;29;20044;-77
2021/12/23 03:42:01;;;;;;;5.60;2.67;;;-1.20;60.40;;;;;;4895392;29;20316;-77
2021/12/23 03:44:27;;;;;;;6.67;3.13;;;-1.10;60.30;;;;;;4904648;29;20084;-77
2021/12/23 03:46:52;;;;;;;5.93;2.53;;;-1.10;60.10;;;;;;4897516;29;20036;-78
2021/12/23 03:49:18;;;;;;;9.00;3.03;;;-1.10;60.10;;;;;;4905351;29;20034;-77
2021/12/23 03:51:44;;;;;;;6.67;2.87;;;-1.10;60.00;;;;;;4900081;29;20025;-77
2021/12/23 03:54:10;;;;;;;11.50;4.13;;;-1.10;60.00;;;;;;4881670;29;20036;-77
2021/12/23 03:56:35;;;;;;;6.50;3.00;;;-1.00;60.00;;;;;;4886182;29;20088;-77
2021/12/23 03:59:01;;;;;;;4.97;2.77;;;-1.00;59.90;;;;;;4903061;29;20028;-76
2021/12/23 04:01:29;;;;;;;7.73;3.00;;;-1.00;60.00;;;;;;4879467;29;20071;-77
2021/12/23 04:03:55;;;;;;;7.30;3.37;;;-1.00;59.90;;;;;;4897620;29;20029;-77
2021/12/23 04:06:21;;;;;;;5.97;3.10;;;-1.00;59.80;;;;;;4904367;29;20734;-77
2021/12/23 04:08:47;;;;;;;6.80;3.27;;;-1.00;59.80;;;;;;4900629;29;20054;-77
2021/12/23 04:11:14;;;;;;;6.40;3.60;;;-1.00;59.80;;;;;;4895943;29;20310;-77
2021/12/23 04:13:40;;;;;;;6.87;3.00;;;-0.90;59.80;;;;;;4896814;29;20287;-77
2021/12/23 04:16:06;;;;;;;6.77;3.67;;;-0.90;60.00;;;;;;4892048;29;20282;-77
2021/12/23 04:18:32;;;;;;;9.73;3.73;;;-0.80;60.00;;;;;;4884649;29;20789;-77
2021/12/23 04:20:58;;;;;;;6.47;3.33;;;-0.80;59.80;;;;;;4881299;29;20379;-77
2021/12/23 04:23:28;;;;;;;6.33;3.40;;;-0.80;59.50;;;;;;4892805;29;20075;-77
2021/12/23 04:25:55;;;;;;;8.93;3.03;;;-0.70;59.60;;;;;;4890751;29;20037;-77
2021/12/23 04:28:23;;;;;;;6.87;3.10;;;-0.70;59.40;;;;;;4897724;29;20308;-77
2021/12/23 04:30:49;;;;;;;8.37;4.10;;;-0.80;59.50;;;;;;4900661;29;20278;-77
2021/12/23 04:33:15;;;;;;;11.37;3.60;;;-0.80;59.40;;;;;;4904979;29;20280;-77
2021/12/23 04:35:40;;;;;;;8.50;3.30;;;-0.90;59.40;;;;;;4879864;29;20298;-77
2021/12/23 04:38:07;;;;;;;7.03;3.20;;;-0.90;59.40;;;;;;4890260;29;20037;-77
2021/12/23 04:40:34;;;;;;;8.10;3.10;;;-0.90;59.50;;;;;;4890621;29;20100;-77
2021/12/23 04:43:09;;;;;;;8.77;3.03;;;-0.80;59.60;;;;;;4888927;29;20297;-77
2021/12/23 04:45:35;;;;;;;7.93;3.33;;;-0.80;59.40;;;;;;4896331;29;20336;-76
2021/12/23 04:48:01;;;;;;;6.47;2.90;;;-0.80;59.40;;;;;;4893784;29;20280;-77
2021/12/23 04:50:27;;;;;;;6.30;2.60;;;-0.80;59.50;;;;;;4902025;29;20032;-77
2021/12/23 04:52:53;;;;;;;8.83;2.73;;;-0.80;59.60;;;;;;4873766;29;20648;-76
2021/12/23 04:55:19;;;;;;;8.07;3.43;;;-0.70;59.80;;;;;;4873568;29;20029;-77
2021/12/23 04:57:45;;;;;;;8.03;4.17;;;-0.70;59.50;;;;;;4890336;29;20299;-77
2021/12/23 05:00:17;;;;;;;8.53;3.80;;;-0.80;59.50;;;;;;4894112;29;20036;-77
2021/12/23 05:02:43;;;;;;;7.85;3.40;;;-0.70;59.50;;;;;;4895060;29;20036;-76
2021/12/23 05:05:09;;;;;;;10.33;4.30;;;-0.70;59.50;;;;;;4873519;29;20473;-77
2021/12/23 05:07:37;;;;;;;7.27;3.60;;;-0.70;59.30;;;;;;4876334;29;20135;-77
2021/12/23 05:10:05;;;;;;;10.53;4.27;;;-0.60;59.30;;;;;;4880192;29;20373;-77
2021/12/23 05:12:32;;;;;;;13.70;5.63;;;-0.60;59.20;;;;;;4867943;29;20269;-77
2021/12/23 05:14:57;;;;;;;10.77;4.63;;;-0.60;59.10;;;;;;4892279;29;20273;-77
2021/12/23 05:17:23;;;;;;;10.70;4.27;;;-0.60;59.10;;;;;;4889265;29;20281;-77
2021/12/23 05:19:49;;;;;;;10.43;5.00;;;-0.70;59.10;;;;;;4889202;29;20031;-77
2021/12/23 05:22:14;;;;;;;7.07;3.67;;;-0.70;59.20;;;;;;4890112;29;20036;-77
2021/12/23 05:24:40;;;;;;;8.57;3.80;;;-0.70;59.70;;;;;;4894332;29;20037;-77
2021/12/23 05:27:06;;;;;;;17.43;5.90;;;-0.70;59.40;;;;;;4883264;29;20060;-77
2021/12/23 05:29:32;;;;;;;10.93;4.77;;;-0.60;59.20;;;;;;4899503;29;20115;-77
2021/12/23 05:31:57;;;;;;;13.30;3.77;;;-0.50;59.30;;;;;;4897700;29;20033;-77
2021/12/23 05:34:23;;;;;;;12.60;3.87;;;-0.50;59.40;;;;;;4888439;29;20035;-77
2021/12/23 05:36:49;;;;;;;11.17;3.63;;;-0.50;59.30;;;;;;4909088;29;20032;-78
2021/12/23 05:39:15;;;;;;;12.83;5.10;;;-0.50;59.10;;;;;;4877028;29;20033;-77
2021/12/23 05:41:40;;;;;;;12.20;4.53;;;-0.50;59.10;;;;;;4875239;29;20029;-77
2021/12/23 05:44:07;;;;;;;15.53;8.27;;;-0.40;59.40;;;;;;4876995;29;20060;-77
2021/12/23 05:46:33;;;;;;;18.80;8.77;;;-0.30;59.70;;;;;;4877428;29;20036;-77
2021/12/23 05:48:58;;;;;;;35.30;19.47;;;-0.30;59.20;;;;;;4873295;29;20301;-77
2021/12/23 05:51:24;;;;;;;14.33;7.33;;;-0.30;59.40;;;;;;4875025;29;20115;-77
2021/12/23 05:53:50;;;;;;;14.17;7.40;;;-0.30;59.50;;;;;;4896904;29;20036;-78
2021/12/23 05:56:16;;;;;;;13.97;5.57;;;-0.30;59.30;;;;;;4898367;29;20085;-77
2021/12/23 05:58:42;;;;;;;14.73;6.70;;;-0.30;59.40;;;;;;4875486;29;20464;-77
2021/12/23 06:01:07;;;;;;;11.40;5.10;;;-0.30;59.40;;;;;;4893897;29;20472;-77
2021/12/23 06:03:33;;;;;;;16.43;5.97;;;-0.30;59.70;;;;;;4875788;29;20120;-78
2021/12/23 06:05:59;;;;;;;13.57;6.83;;;-0.20;59.50;;;;;;4901356;29;20064;-77
2021/12/23 06:08:25;;;;;;;15.67;5.57;;;-0.20;59.70;;;;;;4887007;29;20103;-78
2021/12/23 06:10:51;;;;;;;9.27;4.50;;;-0.20;59.30;;;;;;4878845;29;20401;-78
2021/12/23 06:13:17;;;;;;;15.90;4.53;;;-0.20;59.20;;;;;;4892856;29;20028;-77
2021/12/23 06:15:43;;;;;;;12.77;4.83;;;0.00;59.40;;;;;;4881952;29;20352;-78
2021/12/23 06:18:08;;;;;;;10.13;4.70;;;0.10;58.60;;;;;;4897394;29;20032;-77
2021/12/23 06:20:34;;;;;;;9.17;5.47;;;0.10;58.40;;;;;;4898706;29;20063;-77
2021/12/23 06:22:59;;;;;;;14.97;5.93;;;0.20;58.50;;;;;;4899694;29;20032;-77
2021/12/23 06:25:25;;;;;;;7.87;4.53;;;0.20;58.20;;;;;;4914361;29;20033;-77
2021/12/23 06:27:51;;;;;;;8.40;4.70;;;0.00;58.10;;;;;;4882774;29;20059;-77
2021/12/23 06:32:48;;;;;;;12.67;5.50;;;-0.20;58.30;;;;;;4897979;29;20370;-77
2021/12/23 06:35:15;;;;;;;12.60;7.10;;;-0.30;58.30;;;;;;4881815;29;20285;-77
2021/12/23 06:37:41;;;;;;;14.00;6.33;;;-0.30;58.30;;;;;;4898289;29;20273;-77
2021/12/23 06:40:08;;;;;;;12.93;5.33;;;-0.30;58.30;;;;;;4882704;29;20280;-77
2021/12/23 06:42:34;;;;;;;19.80;6.63;;;-0.30;58.20;;;;;;4899563;29;20302;-77
2021/12/23 06:44:59;;;;;;;14.43;5.30;;;-0.40;58.10;;;;;;4899494;29;20277;-77
2021/12/23 06:47:25;;;;;;;15.73;6.07;;;-0.40;58.10;;;;;;4898072;29;20032;-78
2021/12/23 06:49:51;;;;;;;15.33;5.97;;;-0.50;58.20;;;;;;4899229;29;20033;-77
2021/12/23 06:52:17;;;;;;;12.97;5.33;;;-0.50;58.10;;;;;;4899184;29;20025;-78
2021/12/23 06:54:48;;;;;;;15.17;6.33;;;-0.60;58.20;;;;;;4881568;29;20048;-77
2021/12/23 06:57:14;;;;;;;42.17;16.53;;;-0.60;58.20;;;;;;4899228;29;20029;-77
2021/12/23 06:59:40;;;;;;;43.30;17.00;;;-0.70;58.20;;;;;;4880917;29;20285;-77
2021/12/23 07:02:06;;;;;;;44.53;17.13;;;-0.70;58.30;;;;;;4898151;29;20284;-77
2021/12/23 07:04:34;;;;;;;44.10;17.47;;;-0.70;58.30;;;;;;4898900;29;20277;-77
2021/12/23 07:07:10;;;;;;;43.23;16.37;;;-0.80;58.40;;;;;;4881567;29;20839;-78
2021/12/23 07:09:42;;;;;;;51.87;21.17;;;-0.80;58.50;;;;;;4899025;29;20375;-77
2021/12/23 07:12:10;;;;;;;62.47;25.40;;;-0.80;58.60;;;;;;4898992;29;20268;-77
2021/12/23 07:14:37;;;;;;;19.33;9.10;;;-0.90;58.80;;;;;;4899045;29;20024;-77
2021/12/23 07:17:03;;;;;;;52.60;21.60;;;-0.90;58.80;;;;;;4898880;29;20620;-77
2021/12/23 07:19:29;;;;;;;43.30;15.20;;;-0.90;58.90;;;;;;4898529;29;20269;-78
2021/12/23 07:21:55;;;;;;;34.53;14.03;;;-0.90;59.00;;;;;;4892533;29;20280;-77
2021/12/23 07:24:21;;;;;;;27.93;12.13;;;-0.80;59.10;;;;;;4899004;29;20025;-77
2021/12/23 07:26:47;;;;;;;46.50;16.93;;;-0.80;59.00;;;;;;4898770;29;20028;-77
2021/12/23 07:29:13;;;;;;;27.00;11.57;;;-0.80;59.00;;;;;;4881087;29;20317;-77
2021/12/23 07:31:39;;;;;;;28.63;13.70;;;-0.70;58.90;;;;;;4898092;29;20632;-77
2021/12/23 07:34:05;;;;;;;40.90;16.63;;;-0.70;58.80;;;;;;4894294;29;20776;-77
2021/12/23 07:36:32;;;;;;;55.83;24.33;;;-0.80;58.90;;;;;;4882069;29;20261;-77
2021/12/23 07:38:58;;;;;;;56.37;24.47;;;-0.70;59.20;;;;;;4872027;29;20273;-77
2021/12/23 07:41:27;;;;;;;34.10;17.97;;;-0.70;59.10;;;;;;4881853;29;20768;-77
2021/12/23 07:46:21;;;;;;;24.23;12.67;;;-0.70;59.10;;;;;;4897885;29;20284;-77
2021/12/23 07:48:47;;;;;;;26.83;12.87;;;-0.70;59.00;;;;;;4881489;29;20295;-77
2021/12/23 07:51:13;;;;;;;25.87;10.13;;;-0.70;59.10;;;;;;4896628;29;20261;-77
2021/12/23 07:53:39;;;;;;;20.97;10.37;;;-0.60;59.10;;;;;;4879671;29;20157;-77
2021/12/23 07:56:04;;;;;;;21.57;10.17;;;-0.60;59.00;;;;;;4885753;29;20051;-77
2021/12/23 07:58:31;;;;;;;24.90;9.20;;;-0.70;59.00;;;;;;4878574;29;20044;-78
2021/12/23 08:00:56;;;;;;;25.03;10.90;;;-0.70;59.10;;;;;;4880808;29;20037;-77
2021/12/23 08:03:22;;;;;;;28.97;11.23;;;-0.70;59.20;;;;;;4898257;29;20269;-77
2021/12/23 08:05:48;;;;;;;23.40;10.03;;;-0.70;59.10;;;;;;4881007;29;20030;-77
2021/12/23 08:08:14;;;;;;;20.73;11.43;;;-0.60;59.10;;;;;;4881357;29;20072;-77
2021/12/23 08:10:40;;;;;;;34.87;17.23;;;-0.60;59.10;;;;;;4881264;29;20303;-77
2021/12/23 08:13:07;;;;;;;26.80;16.00;;;-0.60;59.00;;;;;;4897987;29;20027;-77
2021/12/23 08:15:34;;;;;;;30.73;14.53;;;-0.60;59.10;;;;;;4915181;29;20028;-77
2021/12/23 08:17:59;;;;;;;32.53;14.00;;;-0.60;59.10;;;;;;4890119;29;20269;-77
2021/12/23 08:20:25;;;;;;;24.73;10.67;;;-0.60;59.80;;;;;;4881346;29;20614;-76
2021/12/23 08:22:51;;;;;;;23.40;12.13;;;-0.60;59.20;;;;;;4898254;29;20488;-77
2021/12/23 08:25:17;;;;;;;23.07;11.37;;;-0.50;59.20;;;;;;4881522;29;20080;-77
2021/12/23 08:27:43;;;;;;;24.50;13.20;;;-0.50;59.10;;;;;;4881096;29;20063;-77
2021/12/23 08:30:12;;;;;;;24.23;13.87;;;-0.40;59.10;;;;;;4880376;29;20036;-77
2021/12/23 08:32:39;;;;;;;26.73;13.60;;;-0.40;59.10;;;;;;4897907;29;20261;-77
2021/12/23 08:35:05;;;;;;;26.00;15.23;;;-0.40;59.30;;;;;;4897949;29;20752;-77
2021/12/23 08:37:31;;;;;;;32.10;14.50;;;-0.30;59.40;;;;;;4897793;29;20273;-77
2021/12/23 08:39:57;;;;;;;26.60;14.77;;;-0.30;59.20;;;;;;4897800;29;20386;-77
2021/12/23 08:42:23;;;;;;;30.63;15.40;;;-0.30;59.30;;;;;;4897522;29;20041;-77
2021/12/23 08:44:48;;;;;;;32.53;15.00;;;-0.30;59.30;;;;;;4880417;29;20041;-76
2021/12/23 08:47:14;;;;;;;36.70;17.83;;;-0.30;59.30;;;;;;4897554;29;20043;-76
2021/12/23 08:49:44;;;;;;;34.97;18.03;;;-0.20;59.30;;;;;;4881032;29;20041;-77
2021/12/23 08:52:12;;;;;;;39.03;21.20;;;-0.20;59.20;;;;;;4880831;29;20305;-77
2021/12/23 08:54:37;;;;;;;38.97;20.07;;;-0.10;59.20;;;;;;4897324;29;20364;-77
2021/12/23 08:57:04;;;;;;;36.40;19.07;;;0.00;59.20;;;;;;4905128;29;20355;-77
2021/12/23 08:59:31;;;;;;;27.53;12.93;;;0.00;59.10;;;;;;4900587;29;20036;-77
2021/12/23 09:01:56;;;;;;;19.80;10.70;;;0.10;59.10;;;;;;4876393;29;20317;-77
2021/12/23 09:04:22;;;;;;;17.20;8.90;;;0.10;59.20;;;;;;4889279;29;20300;-77
2021/12/23 09:06:48;;;;;;;24.37;10.77;;;0.10;59.20;;;;;;4884049;29;20084;-77
2021/12/23 09:09:14;;;;;;;25.37;9.00;;;0.20;59.40;;;;;;4884164;29;20104;-77
2021/12/23 09:11:40;;;;;;;25.37;9.60;;;0.20;59.20;;;;;;4900467;29;20281;-77
2021/12/23 09:14:07;;;;;;;17.60;10.00;;;0.30;59.20;;;;;;4884732;29;20031;-78
2021/12/23 09:16:33;;;;;;;21.70;9.77;;;0.40;59.20;;;;;;4901089;29;20269;-77
2021/12/23 09:18:58;;;;;;;21.87;10.20;;;0.50;59.00;;;;;;4901125;29;20089;-77
2021/12/23 09:21:24;;;;;;;24.73;9.47;;;0.60;58.80;;;;;;4884712;29;20127;-77
2021/12/23 09:23:50;;;;;;;21.97;9.03;;;0.70;58.80;;;;;;4883717;29;20403;-78
2021/12/23 09:26:16;;;;;;;27.53;9.47;;;0.80;58.70;;;;;;4900723;29;20044;-78
2021/12/23 09:34:01;;;;;;;20.73;9.30;;;1.20;58.30;;;;;;4901413;29;20396;-78
2021/12/23 09:36:27;;;;;;;13.30;8.00;;;1.20;58.10;;;;;;4883626;29;20032;-78
2021/12/23 09:38:53;;;;;;;19.10;9.90;;;1.30;58.30;;;;;;4899241;29;20039;-78
2021/12/23 09:41:21;;;;;;;21.33;10.50;;;1.50;58.40;;;;;;4883144;29;20068;-78
2021/12/23 09:43:47;;;;;;;25.80;11.77;;;1.60;57.90;;;;;;4883604;29;20032;-78
2021/12/23 09:46:16;;;;;;;13.47;7.33;;;1.80;57.80;;;;;;4900605;29;20088;-78
2021/12/23 09:48:45;;;;;;;9.83;4.97;;;1.90;57.50;;;;;;4883892;29;20040;-78
2021/12/23 09:51:12;;;;;;;16.53;6.27;;;2.00;57.00;;;;;;4913720;29;20032;-78
2021/12/23 09:53:42;;;;;;;12.77;5.77;;;2.10;56.40;;;;;;4894811;29;20043;-78
2021/12/23 09:56:09;;;;;;;10.60;5.03;;;2.10;55.90;;;;;;4880948;29;20116;-78
2021/12/23 09:58:35;;;;;;;17.00;4.83;;;2.10;56.40;;;;;;4883472;29;20560;-78
2021/12/23 10:01:02;;;;;;;9.27;4.80;;;2.20;55.90;;;;;;4898776;29;20480;-78
2021/12/23 10:03:30;;;;;;;9.83;4.33;;;2.30;55.80;;;;;;4899011;29;20443;-78
2021/12/23 10:05:58;;;;;;;9.53;5.27;;;2.60;56.00;;;;;;4898759;29;20480;-78
2021/12/23 10:08:26;;;;;;;6.83;3.83;;;2.70;55.50;;;;;;4900130;29;20044;-78
2021/12/23 10:11:02;;;;;;;13.33;4.27;;;2.80;54.90;;;;;;4898899;29;20377;-78
2021/12/23 10:30:33;;;;;;;12.90;5.83;;;3.30;53.40;;;;;;4892788;29;20084;-77
2021/12/23 10:38:38;;;;;;;15.63;4.97;;;3.80;52.60;;;;;;4899790;29;20032;-78
2021/12/23 10:41:12;;;;;;;9.10;4.00;;;4.00;52.40;;;;;;4882901;29;20507;-79
2021/12/23 10:43:57;;;;;;;10.17;5.30;;;4.10;52.70;;;;;;4898448;29;20032;-79
2021/12/23 10:46:30;;;;;;;14.50;4.77;;;4.30;52.50;;;;;;4887851;29;20056;-78
2021/12/23 10:49:40;;;;;;;12.82;5.82;;;4.30;52.20;;;;;;4899176;29;20029;-78
2021/12/23 10:52:06;;;;;;;9.80;4.70;;;4.50;52.40;;;;;;4885132;29;20108;-78
2021/12/23 11:00:25;;;;;;;13.57;5.33;;;4.40;51.50;;;;;;4896447;29;20068;-78
2021/12/23 11:03:24;;;;;;;11.27;4.03;;;4.50;51.50;;;;;;4893900;29;20073;-78
2021/12/23 11:06:17;;;;;;;8.10;3.97;;;4.60;50.80;;;;;;4882422;29;20043;-76
2021/12/23 11:41:34;;;;;;;13.27;5.67;;;5.10;48.90;;;;;;4898728;29;20107;-77
2021/12/23 11:44:02;;;;;;;29.63;4.87;;;5.20;48.70;;;;;;4883265;29;20024;-77
2021/12/23 11:46:41;;;;;;;16.13;4.83;;;5.30;48.70;;;;;;4880457;29;20430;-77
2021/12/23 11:49:09;;;;;;;9.97;3.97;;;5.40;48.40;;;;;;4881997;29;20040;-77
2021/12/23 11:51:53;;;;;;;13.63;4.60;;;5.50;48.30;;;;;;4882017;29;20488;-77
2021/12/23 11:54:29;;;;;;;7.83;4.17;;;5.50;48.00;;;;;;4881053;29;20082;-77
2021/12/23 11:57:03;;;;;;;11.17;5.77;;;5.60;48.40;;;;;;4898148;29;20392;-77
2021/12/23 11:59:31;;;;;;;16.03;5.63;;;5.70;47.80;;;;;;4897967;29;20033;-77
2021/12/23 12:01:58;;;;;;;14.47;4.87;;;5.70;47.60;;;;;;4897549;29;20103;-77
2021/12/23 12:04:35;;;;;;;11.67;5.10;;;5.80;47.50;;;;;;4895979;29;20033;-77
2021/12/23 12:07:16;;;;;;;11.03;4.33;;;5.80;47.20;;;;;;4896380;29;20102;-77
2021/12/23 12:10:04;;;;;;;15.07;4.10;;;5.80;46.80;;;;;;4897948;29;20119;-77
2021/12/23 12:12:32;;;;;;;15.27;4.20;;;5.70;46.70;;;;;;4897699;29;20480;-77
2021/12/23 12:14:58;;;;;;;18.43;4.87;;;5.80;47.10;;;;;;4877104;29;20550;-77
2021/12/23 12:17:27;;;;;;;12.17;3.90;;;5.90;46.80;;;;;;4897175;29;20126;-78
2021/12/23 12:20:09;;;;;;;9.53;3.93;;;5.80;46.30;;;;;;4896520;29;20032;-77
2021/12/23 12:23:06;;;;;;;18.52;3.70;;;5.80;46.10;;;;;;4896030;29;20025;-77
2021/12/23 12:25:38;;;;;;;13.53;4.23;;;5.90;45.80;;;;;;4879920;29;20029;-77
2021/12/23 12:28:04;;;;;;;23.45;5.65;;;6.00;45.80;;;;;;4882297;29;20119;-77
2021/12/23 12:30:41;;;;;;;12.63;3.47;;;6.20;45.90;;;;;;4898749;29;20544;-77
2021/12/23 12:33:19;;;;;;;8.50;3.57;;;6.30;45.30;;;;;;4881507;29;20480;-77
2021/12/23 12:36:05;;;;;;;13.03;3.37;;;6.50;44.90;;;;;;4885286;29;20024;-77
2021/12/23 12:38:38;;;;;;;11.90;3.53;;;6.50;44.40;;;;;;4902325;29;20345;-77
2021/12/23 12:41:05;;;;;;;;;;;6.50;44.20;;;;;;4902538;29;20033;-77
2021/12/23 12:43:46;;;;;;;14.80;3.50;;;6.40;44.60;;;;;;4881597;29;20368;-77
2021/12/23 12:46:15;;;;;;;14.83;3.87;;;6.40;44.20;;;;;;4901776;29;20137;-77
2021/12/23 12:49:08;;;;;;;6.47;3.10;;;6.40;44.00;;;;;;4901977;29;20036;-77
2021/12/23 12:51:40;;;;;;;20.17;4.53;;;6.30;43.90;;;;;;4902323;29;20032;-77
2021/12/23 12:54:09;;;;;;;8.13;3.10;;;6.30;43.90;;;;;;4902101;29;20116;-77
2021/12/23 12:56:37;;;;;;;9.57;3.67;;;6.30;43.90;;;;;;4900131;29;20112;-77
2021/12/23 12:59:08;;;;;;;5.70;2.57;;;6.20;43.90;;;;;;4901998;29;20033;-77
2021/12/23 13:01:35;;;;;;;9.13;2.90;;;6.20;43.70;;;;;;4884710;29;20028;-77
2021/12/23 13:04:02;;;;;;;17.20;4.27;;;6.10;43.70;;;;;;4897932;29;20472;-77
2021/12/23 13:06:41;;;;;;;10.97;3.30;;;6.20;43.80;;;;;;4884896;29;20119;-77
2021/12/23 13:09:13;;;;;;;9.50;3.07;;;6.20;43.80;;;;;;4901563;29;20048;-77
2021/12/23 13:11:48;;;;;;;17.25;4.22;;;6.30;44.60;;;;;;4901777;29;20025;-77
2021/12/23 13:14:21;;;;;;;10.33;3.60;;;6.30;44.10;;;;;;4902026;29;20033;-77
2021/12/23 13:16:56;;;;;;;9.13;3.83;;;6.40;44.20;;;;;;4883972;29;20024;-77
2021/12/23 13:19:29;;;;;;;10.70;3.87;;;6.40;44.10;;;;;;4883566;29;20028;-77
2021/12/23 13:21:56;;;;;;;13.80;5.10;;;6.40;44.10;;;;;;4900123;29;20028;-77
2021/12/23 13:24:25;;;;;;;28.77;8.70;;;6.40;44.20;;;;;;4883440;29;20515;-77
2021/12/23 13:26:54;;;;;;;16.57;5.17;;;6.30;44.10;;;;;;4883315;29;20064;-77
2021/12/23 13:29:26;;;;;;;12.13;3.90;;;6.30;44.00;;;;;;4900096;29;20076;-77
2021/12/23 13:31:52;;;;;;;24.50;7.43;;;6.30;44.00;;;;;;4882558;29;20551;-77
2021/12/23 13:34:24;;;;;;;9.13;3.97;;;6.30;44.00;;;;;;4880810;29;20032;-77
2021/12/23 13:36:56;;;;;;;15.55;4.53;;;6.20;43.90;;;;;;4887830;29;20033;-77
2021/12/23 13:39:27;;;;;;;17.47;4.33;;;6.30;44.40;;;;;;4898773;29;20040;-77
2021/12/23 13:41:57;;;;;;;16.73;4.67;;;6.30;44.60;;;;;;4900084;29;20055;-77
2021/12/23 13:44:36;;;;;;;19.90;4.60;;;6.30;44.80;;;;;;4882873;29;20120;-77
2021/12/23 13:47:20;;;;;;;21.90;5.60;;;6.30;44.80;;;;;;4883039;29;20472;-77
2021/12/23 13:49:51;;;;;;;11.73;4.77;;;6.30;44.70;;;;;;4898553;29;20032;-77
2021/12/23 13:52:40;;;;;;;17.10;5.83;;;6.30;44.70;;;;;;4899601;29;20116;-77
2021/12/23 13:55:12;;;;;;;26.13;7.47;;;6.30;45.00;;;;;;4888226;29;20063;-77
2021/12/23 13:57:42;;;;;;;;;;;6.30;45.30;;;;;;4882298;29;20052;-77
2021/12/23 14:00:17;;;;;;;37.47;9.77;;;6.20;45.50;;;;;;4872858;29;20355;-77
2021/12/23 14:02:43;;;;;;;18.30;7.60;;;6.20;45.70;;;;;;4900392;29;20024;-77
2021/12/23 14:05:11;;;;;;;20.43;6.17;;;6.20;45.90;;;;;;4900362;29;20365;-77
2021/12/23 14:07:45;;;;;;;10.97;6.10;;;6.10;45.90;;;;;;4898434;29;20063;-77
2021/12/23 14:10:18;;;;;;;17.43;5.93;;;6.10;46.00;;;;;;4882501;29;20149;-77